createdAt,value
2022-08-27T00:01:51.651Z,83.53
2022-08-27T00:12:13.671Z,83.12
2022-08-27T00:22:35.442Z,83.27
2022-08-27T00:32:57.151Z,82.17
2022-08-27T00:43:28.036Z,81.92
2022-08-27T00:53:51.701Z,82.13
2022-08-27T01:04:13.251Z,83.26
2022-08-27T01:14:35.591Z,83.77
2022-08-27T01:25:01.622Z,84.40
2022-08-27T01:35:23.972Z,84.26
2022-08-27T01:45:49.263Z,84.39
2022-08-27T01:56:11.529Z,84.00
2022-08-27T02:06:33.620Z,82.86
2022-08-27T02:16:56.174Z,83.38
2022-08-27T02:27:18.446Z,82.32
2022-08-27T02:37:40.212Z,82.50
2022-08-27T02:48:01.890Z,83.43
2022-08-27T02:58:23.510Z,83.98
2022-08-27T03:08:53.066Z,84.03
2022-08-27T03:19:18.664Z,84.02
2022-08-27T03:29:45.232Z,84.33
2022-08-27T03:40:08.153Z,85.13
2022-08-27T03:50:29.803Z,85.50
2022-08-27T04:00:51.370Z,86.24
2022-08-27T04:11:12.937Z,86.36
2022-08-27T04:21:35.721Z,86.32
2022-08-27T04:31:57.807Z,87.12
2022-08-27T04:42:20.019Z,87.53
2022-08-27T04:52:41.619Z,86.68
2022-08-27T05:03:03.222Z,86.45
2022-08-27T05:13:24.838Z,85.93
2022-08-27T05:23:46.553Z,85.51
2022-08-27T05:34:10.451Z,86.38
2022-08-27T05:44:41.129Z,85.18
2022-08-27T05:55:03.146Z,85.05
2022-08-27T06:05:24.750Z,85.60
2022-08-27T06:15:46.382Z,84.36
2022-08-27T06:26:13.821Z,83.40
2022-08-27T06:36:41.540Z,81.53
2022-08-27T06:47:03.878Z,81.77
2022-08-27T06:57:25.497Z,79.88
2022-08-27T07:07:48.859Z,79.55
2022-08-27T07:18:11.180Z,77.80
2022-08-27T07:28:34.147Z,78.56
2022-08-27T07:39:00.673Z,77.75
2022-08-27T07:49:23.621Z,76.29
2022-08-27T07:59:45.242Z,75.96
2022-08-27T08:10:09.311Z,75.08
2022-08-27T08:20:56.590Z,73.76
2022-08-27T08:31:13.454Z,73.72
2022-08-27T08:41:53.816Z,74.27
2022-08-27T08:52:34.031Z,72.88
2022-08-27T09:02:55.701Z,72.48
2022-08-27T09:13:25.217Z,71.15
2022-08-27T09:24:08.215Z,71.05
2022-08-27T09:34:41.424Z,70.87
2022-08-27T09:45:08.670Z,71.63
2022-08-27T09:55:36.755Z,71.24
2022-08-27T10:05:59.114Z,70.00
2022-08-27T10:16:51.050Z,67.74
2022-08-27T10:27:19.730Z,69.07
2022-08-27T10:37:56.543Z,65.92
2022-08-27T10:48:25.659Z,66.02
2022-08-27T10:58:58.124Z,65.60
2022-08-27T11:09:26.855Z,65.05
2022-08-27T11:20:04.719Z,61.61
2022-08-27T11:30:38.534Z,62.00
2022-08-27T11:41:44.875Z,61.62
2022-08-27T11:52:09.177Z,61.31
2022-08-27T12:02:30.818Z,59.56
2022-08-27T12:13:17.054Z,60.17
2022-08-27T12:24:09.049Z,59.78
2022-08-27T12:34:41.640Z,57.55
2022-08-27T12:45:05.291Z,57.21
2022-08-27T12:55:45.922Z,59.29
2022-08-27T13:06:21.141Z,59.38
2022-08-27T13:16:51.584Z,56.93
2022-08-27T13:27:13.101Z,57.58
2022-08-27T13:37:47.926Z,56.75
2022-08-27T13:48:12.581Z,54.83
2022-08-27T13:58:35.801Z,57.64
2022-08-27T14:08:57.633Z,57.53
2022-08-27T14:19:33.263Z,57.00
2022-08-27T14:29:58.493Z,57.15
2022-08-27T14:40:20.638Z,57.25
2022-08-27T14:50:42.592Z,56.20
2022-08-27T15:01:04.942Z,55.85
2022-08-27T15:11:33.876Z,56.45
2022-08-27T15:22:10.110Z,57.05
2022-08-27T15:32:36.934Z,57.70
2022-08-27T15:43:02.296Z,58.52
2022-08-27T15:53:25.628Z,57.19
2022-08-27T16:03:47.583Z,58.68
2022-08-27T16:14:10.668Z,56.61
2022-08-27T16:24:32.327Z,58.41
2022-08-27T16:34:55.825Z,60.55
2022-08-27T16:45:22.626Z,58.92
2022-08-27T16:55:47.403Z,59.06
2022-08-27T17:06:10.593Z,59.85
2022-08-27T17:16:34.375Z,61.38
2022-08-27T17:26:55.941Z,61.69
2022-08-27T17:37:18.867Z,63.37
2022-08-27T17:47:40.594Z,64.34
2022-08-27T17:58:02.204Z,63.29
2022-08-27T18:08:23.747Z,64.31
2022-08-27T18:18:47.619Z,65.14
2022-08-27T18:29:10.472Z,65.07
2022-08-27T18:39:33.141Z,65.97
2022-08-27T18:49:56.134Z,67.69
2022-08-27T19:00:19.205Z,68.95
2022-08-27T19:10:40.855Z,69.66
2022-08-27T19:21:02.671Z,70.52
2022-08-27T19:31:24.513Z,70.83
2022-08-27T19:41:46.155Z,71.16
2022-08-27T19:52:08.754Z,71.89
2022-08-27T20:02:30.443Z,73.96
2022-08-27T20:12:52.079Z,73.76
2022-08-27T20:23:13.902Z,74.89
2022-08-27T20:33:35.501Z,75.34
2022-08-27T20:43:57.225Z,74.98
2022-08-27T20:54:18.794Z,76.36
2022-08-27T21:04:46.465Z,77.22
2022-08-27T21:15:09.188Z,77.79
2022-08-27T21:25:30.794Z,77.89
2022-08-27T21:35:52.652Z,78.65
2022-08-27T21:46:14.297Z,79.47
2022-08-27T21:56:35.884Z,79.29
2022-08-27T22:06:57.729Z,80.07
2022-08-27T22:17:19.253Z,81.39
2022-08-27T22:27:40.847Z,82.40
2022-08-27T22:38:02.558Z,81.48
2022-08-27T22:48:24.976Z,81.63
2022-08-27T22:58:46.539Z,81.08
2022-08-27T23:09:08.051Z,83.60
2022-08-27T23:19:30.886Z,84.90
2022-08-27T23:29:52.966Z,86.69
2022-08-27T23:40:15.120Z,87.23
2022-08-27T23:50:37.884Z,87.00
